Time;durP1;ratioP1;P1;durP2;ratioP2;P2;SDS_P1;SDS_P2;PMS_P1;PMS_P2;Temp;Humidity;BMP_temperature;BMP_pressure;BME280_temperature;BME280_humidity;BME280_pressure;Samples;Min_cycle;Max_cycle;Signal;HPM_P1;HPM_P2
2021/11/08 00:00:33;;;;;;;3.72;0.38;;;;;;;5.15;100.00;100867.72;4827637;29;20038;-79
2021/11/08 00:03:02;;;;;;;0.80;0.40;;;;;;;5.13;100.00;100869.69;4844226;29;20105;-79
2021/11/08 00:05:27;;;;;;;0.73;0.32;;;;;;;5.13;100.00;100878.56;4848327;29;20022;-80
2021/11/08 00:07:59;;;;;;;0.40;0.30;;;;;;;5.08;100.00;100875.53;4847865;29;20102;-79
2021/11/08 00:10:29;;;;;;;1.30;0.35;;;;;;;4.98;100.00;100850.81;4844079;29;20040;-79
2021/11/08 00:12:58;;;;;;;2.17;0.40;;;;;;;5.16;100.00;100872.88;4830157;29;20037;-80
2021/11/08 00:15:34;;;;;;;1.33;0.30;;;;;;;5.13;100.00;100883.91;4862126;29;20113;-79
2021/11/08 00:18:11;;;;;;;1.17;0.40;;;;;;;4.95;100.00;100853.81;4856577;29;20030;-79
2021/11/08 00:20:45;;;;;;;0.60;0.30;;;;;;;4.98;100.00;100866.81;4843431;29;20037;-79
2021/11/08 00:23:13;;;;;;;2.30;0.40;;;;;;;4.83;100.00;100847.94;4843707;29;20030;-79
2021/11/08 00:25:40;;;;;;;0.52;0.28;;;;;;;5.11;100.00;100907.22;4842776;29;20177;-79
2021/11/08 00:28:07;;;;;;;0.68;0.20;;;;;;;5.09;100.00;100905.69;4828635;29;20433;-79
2021/11/08 00:30:36;;;;;;;0.80;0.30;;;;;;;5.09;100.00;100919.03;4844054;29;20033;-79
2021/11/08 00:33:03;;;;;;;1.40;0.40;;;;;;;5.08;100.00;100917.38;4829001;29;20046;-79
2021/11/08 00:35:29;;;;;;;1.55;0.50;;;;;;;5.04;100.00;100913.34;4843879;29;20209;-79
2021/11/08 00:37:54;;;;;;;0.98;0.22;;;;;;;5.11;100.00;100923.22;4859213;29;20080;-79
2021/11/08 00:40:19;;;;;;;1.48;0.38;;;;;;;5.15;100.00;100932.56;4845264;29;20126;-79
2021/11/08 00:42:45;;;;;;;0.75;0.30;;;;;;;5.03;100.00;100909.84;4843270;29;20105;-79
2021/11/08 00:45:11;;;;;;;1.83;0.43;;;;;;;5.11;100.00;100927.72;4844139;29;20044;-79
2021/11/08 00:47:37;;;;;;;1.63;0.40;;;;;;;5.05;100.00;100929.19;4842910;29;20128;-79
2021/11/08 00:50:05;;;;;;;1.42;0.50;;;;;;;5.05;100.00;100939.84;4843921;29;20369;-79
2021/11/08 00:52:31;;;;;;;2.92;0.40;;;;;;;5.07;100.00;100950.38;4850401;29;20053;-79
2021/11/08 00:54:58;;;;;;;1.23;0.40;;;;;;;5.08;100.00;100954.72;4862737;29;20121;-80
2021/11/08 00:57:26;;;;;;;2.08;0.38;;;;;;;5.05;100.00;100957.69;4864038;29;20060;-79
2021/11/08 00:59:53;;;;;;;2.17;0.73;;;;;;;5.08;100.00;100960.03;4849922;29;20034;-79
2021/11/08 01:02:23;;;;;;;1.02;0.40;;;;;;;5.01;100.00;100961.69;4833363;29;20037;-79
2021/11/08 01:04:50;;;;;;;2.88;0.40;;;;;;;4.98;100.00;100952.16;4828537;29;20032;-79
2021/11/08 01:07:15;;;;;;;1.98;0.40;;;;;;;5.06;100.00;100973.53;4848925;29;20029;-80
2021/11/08 01:09:41;;;;;;;3.65;0.65;;;;;;;5.08;100.00;100984.88;4845923;29;20540;-79
2021/11/08 01:12:07;;;;;;;2.08;0.50;;;;;;;5.00;100.00;100971.53;4855876;29;20022;-79
2021/11/08 01:14:34;;;;;;;0.93;0.30;;;;;;;5.12;100.00;100985.41;4842985;29;20042;-79
2021/11/08 01:16:59;;;;;;;1.38;0.35;;;;;;;5.05;100.00;100989.69;4827193;29;20446;-78
2021/11/08 01:19:28;;;;;;;3.00;0.50;;;;;;;5.02;100.00;100998.84;4823189;29;20086;-80
2021/11/08 01:22:03;;;;;;;0.93;0.30;;;;;;;5.09;100.00;100999.88;4850072;29;20034;-79
2021/11/08 01:24:30;;;;;;;2.60;0.38;;;;;;;4.98;100.00;100997.50;4829126;29;20034;-79
2021/11/08 01:26:56;;;;;;;1.40;0.47;;;;;;;5.08;100.00;101013.38;4843506;29;20026;-79
2021/11/08 01:29:21;;;;;;;1.60;0.40;;;;;;;5.08;100.00;101014.22;4856537;29;20049;-78
2021/11/08 01:31:47;;;;;;;0.88;0.32;;;;;;;5.03;100.00;101013.00;4843050;29;20052;-78
2021/11/08 01:34:12;;;;;;;1.30;0.40;;;;;;;5.09;100.00;101015.88;4826876;29;20098;-79
2021/11/08 01:36:41;;;;;;;2.50;0.70;;;;;;;5.00;100.00;101016.84;4826578;29;20033;-79
2021/11/08 01:39:19;;;;;;;3.63;0.50;;;;;;;4.91;100.00;101013.28;4874333;29;20037;-79
2021/11/08 01:41:46;;;;;;;3.42;0.45;;;;;;;4.98;100.00;101032.16;4860039;29;20033;-79
2021/11/08 01:44:12;;;;;;;2.60;0.50;;;;;;;5.02;100.00;101025.50;4842449;29;20109;-79
2021/11/08 01:46:37;;;;;;;2.53;0.60;;;;;;;5.01;100.00;101033.69;4843135;29;20161;-79
2021/11/08 01:49:03;;;;;;;1.58;0.52;;;;;;;5.02;100.00;101030.84;4842831;29;20049;-79
2021/11/08 01:51:29;;;;;;;2.70;0.90;;;;;;;4.99;100.00;101044.50;4842580;29;20376;-78
2021/11/08 01:53:55;;;;;;;3.45;0.50;;;;;;;5.02;100.00;101052.19;4842755;29;20037;-79
2021/11/08 01:56:22;;;;;;;3.03;0.70;;;;;;;5.08;100.00;101051.56;4843112;29;20034;-78
2021/11/08 01:58:48;;;;;;;1.98;0.60;;;;;;;5.11;100.00;101055.75;4826463;29;20058;-79
2021/11/08 02:01:14;;;;;;;2.80;0.65;;;;;;;4.84;100.00;101038.06;4841949;29;20368;-79
2021/11/08 02:03:47;;;;;;;3.30;0.63;;;;;;;4.97;100.00;101065.16;4828470;29;20042;-79
2021/11/08 02:06:13;;;;;;;3.17;0.60;;;;;;;4.94;100.00;101073.47;4842165;29;20468;-78
2021/11/08 02:08:40;;;;;;;2.63;0.75;;;;;;;4.83;100.00;101068.38;4844139;29;20042;-79
2021/11/08 02:11:06;;;;;;;2.75;0.60;;;;;;;4.95;100.00;101078.63;4847990;29;20126;-80
2021/11/08 02:13:32;;;;;;;5.00;0.60;;;;;;;4.86;100.00;101058.22;4832253;29;20041;-79
2021/11/08 02:15:57;;;;;;;2.40;0.40;;;;;;;4.93;100.00;101071.78;4830781;29;20369;-79
2021/11/08 02:18:23;;;;;;;1.77;0.50;;;;;;;4.94;100.00;101078.81;4829962;29;20030;-79
2021/11/08 02:20:51;;;;;;;3.47;0.47;;;;;;;4.91;100.00;101089.78;4847489;29;20041;-79
2021/11/08 02:23:18;;;;;;;2.92;0.60;;;;;;;4.92;100.00;101075.44;4856243;29;20033;-78
2021/11/08 02:25:44;;;;;;;5.15;0.60;;;;;;;4.98;100.00;101088.16;4864656;29;20089;-79
2021/11/08 02:28:12;;;;;;;3.00;0.50;;;;;;;4.97;100.00;101094.50;4842867;29;20105;-79
2021/11/08 02:30:38;;;;;;;2.35;0.50;;;;;;;4.95;100.00;101096.47;4830175;29;20093;-79
2021/11/08 02:33:08;;;;;;;4.00;0.73;;;;;;;5.01;100.00;101103.03;4846279;29;20030;-79
2021/11/08 02:35:38;;;;;;;2.83;0.60;;;;;;;4.90;100.00;101107.63;4846178;29;20030;-79
2021/11/08 02:38:07;;;;;;;2.97;0.50;;;;;;;4.70;100.00;101087.44;4862306;29;20067;-79
2021/11/08 02:40:33;;;;;;;4.88;0.60;;;;;;;4.87;100.00;101115.09;4844287;29;20041;-78
2021/11/08 02:43:03;;;;;;;2.58;0.55;;;;;;;4.71;100.00;101107.78;4832972;29;20376;-79
2021/11/08 02:45:30;;;;;;;2.72;0.80;;;;;;;4.79;100.00;101113.19;4845547;29;20057;-79
2021/11/08 02:47:57;;;;;;;3.80;0.60;;;;;;;4.85;100.00;101130.41;4844713;29;20026;-79
2021/11/08 02:50:29;;;;;;;3.00;0.52;;;;;;;4.79;100.00;101131.00;4828744;29;20042;-79
2021/11/08 02:52:56;;;;;;;2.25;0.70;;;;;;;4.68;100.00;101114.25;4829106;29;20026;-79
2021/11/08 02:55:25;;;;;;;3.80;0.50;;;;;;;4.77;100.00;101135.63;4845242;29;20022;-79
2021/11/08 02:57:52;;;;;;;2.15;0.70;;;;;;;4.75;100.00;101142.97;4845019;29;20050;-79
2021/11/08 03:00:19;;;;;;;8.60;0.57;;;;;;;4.75;100.00;101137.63;4846234;29;20403;-79
2021/11/08 03:02:47;;;;;;;1.08;0.40;;;;;;;4.69;100.00;101131.91;4841864;29;20406;-79
2021/11/08 03:05:14;;;;;;;1.77;0.40;;;;;;;4.75;100.00;101142.97;4848611;29;20062;-79
2021/11/08 03:07:41;;;;;;;1.95;0.50;;;;;;;4.72;100.00;101146.78;4852221;29;20079;-79
2021/11/08 03:10:21;;;;;;;3.55;0.40;;;;;;;4.50;100.00;101128.56;4860635;29;20354;-79
2021/11/08 03:12:48;;;;;;;2.35;0.55;;;;;;;4.68;100.00;101150.75;4829050;29;20098;-77
2021/11/08 03:18:07;;;;;;;4.03;0.70;;;;;;;4.54;100.00;101149.44;4813432;29;20041;-79
2021/11/08 03:20:34;;;;;;;1.35;0.60;;;;;;;4.59;100.00;101163.13;4847641;29;20369;-80
2021/11/08 03:23:05;;;;;;;3.35;1.15;;;;;;;4.53;100.00;101147.75;4847521;29;20033;-79
2021/11/08 03:28:00;;;;;;;2.08;0.50;;;;;;;4.62;100.00;101176.16;4847801;29;20041;-79
2021/11/08 03:30:35;;;;;;;2.42;0.45;;;;;;;4.57;100.00;101169.59;4848264;29;20034;-79
2021/11/08 03:33:00;;;;;;;;;;;;;;;4.54;100.00;101176.09;4859465;29;20416;-79
2021/11/08 03:35:27;;;;;;;1.83;0.40;;;;;;;4.50;100.00;101182.69;4829112;29;19912;-79
2021/11/08 03:37:54;;;;;;;4.30;0.50;;;;;;;4.49;100.00;101178.34;4828247;29;20029;-79
2021/11/08 03:40:29;;;;;;;1.33;0.40;;;;;;;4.49;100.00;101189.00;4859408;29;20107;-79
2021/11/08 03:42:56;;;;;;;1.90;0.43;;;;;;;4.49;100.00;101194.34;4854362;29;20026;-79
2021/11/08 03:45:27;;;;;;;2.63;0.60;;;;;;;4.51;100.00;101192.38;4828345;29;20033;-79
2021/11/08 03:47:54;;;;;;;3.30;0.40;;;;;;;4.54;100.00;101199.25;4844280;29;20048;-79
2021/11/08 03:50:21;;;;;;;2.28;0.60;;;;;;;4.47;100.00;101207.00;4863580;29;20154;-79
2021/11/08 03:52:47;;;;;;;1.83;0.40;;;;;;;4.48;100.00;101227.31;4831511;29;20033;-79
2021/11/08 03:55:13;;;;;;;2.60;0.40;;;;;;;4.44;99.79;101218.78;4858523;29;20048;-79
2021/11/08 03:57:41;;;;;;;2.15;0.40;;;;;;;4.37;99.77;101196.41;4863259;29;20102;-79
2021/11/08 04:00:12;;;;;;;3.38;0.50;;;;;;;4.43;100.00;101222.41;4862637;29;20402;-79
2021/11/08 04:02:38;;;;;;;3.45;0.50;;;;;;;4.48;100.00;101237.97;4863161;29;20037;-78
2021/11/08 04:05:06;;;;;;;1.55;0.50;;;;;;;4.44;99.71;101244.59;4848952;29;20122;-79
2021/11/08 04:07:31;;;;;;;1.50;0.40;;;;;;;4.43;100.00;101249.06;4843672;29;20503;-78
2021/11/08 04:09:57;;;;;;;1.17;0.30;;;;;;;4.42;99.27;101252.72;4849491;29;20037;-79
2021/11/08 04:12:24;;;;;;;2.17;0.40;;;;;;;4.38;99.39;101234.53;4830504;29;20384;-78
2021/11/08 04:14:50;;;;;;;2.13;0.50;;;;;;;4.42;99.32;101259.88;4862734;29;20025;-79
2021/11/08 04:17:16;;;;;;;3.83;0.47;;;;;;;4.36;99.58;101255.16;4863520;29;20033;-78
2021/11/08 04:19:44;;;;;;;2.95;0.50;;;;;;;4.27;99.30;101251.53;4863792;29;20094;-79
2021/11/08 04:22:09;;;;;;;0.52;0.40;;;;;;;4.31;99.00;101265.41;4858467;29;20025;-78
2021/11/08 04:24:35;;;;;;;2.70;0.50;;;;;;;4.31;98.71;101273.41;4845112;29;20036;-79
2021/11/08 04:27:02;;;;;;;1.35;0.40;;;;;;;3.95;98.85;101217.34;4813123;29;20164;-79
2021/11/08 04:29:28;;;;;;;1.55;0.50;;;;;;;4.19;99.26;101268.25;4844333;29;20469;-79
2021/11/08 04:31:54;;;;;;;0.93;0.40;;;;;;;4.26;98.89;101289.81;4845520;29;20038;-79
2021/11/08 04:34:40;;;;;;;1.67;0.40;;;;;;;4.29;98.89;101294.03;4844336;29;20048;-78
2021/11/08 04:52:57;;;;;;;1.55;0.40;;;;;;;4.11;98.90;101321.41;4845538;29;20029;-78
2021/11/08 04:55:30;;;;;;;3.70;0.38;;;;;;;4.08;98.70;101327.03;4856864;29;20030;-79
2021/11/08 05:22:23;;;;;;;1.35;0.40;;;;;;;3.91;100.00;101365.88;4846008;29;20421;-79
2021/11/08 05:30:07;;;;;;;2.70;0.45;;;;;;;3.83;100.00;101383.53;4841593;29;20467;-78
2021/11/08 05:32:35;;;;;;;1.33;0.40;;;;;;;3.86;99.80;101383.25;4839974;29;20058;-79
2021/11/08 05:35:01;;;;;;;1.40;0.50;;;;;;;3.85;100.00;101387.75;4836424;29;20030;-78
2021/11/08 05:37:28;;;;;;;0.63;0.30;;;;;;;3.85;100.00;101387.75;4826195;29;20037;-78
2021/11/08 05:39:57;;;;;;;3.30;0.55;;;;;;;3.85;100.00;101386.91;4822937;29;20022;-78
2021/11/08 05:42:24;;;;;;;1.85;0.65;;;;;;;3.76;100.00;101393.91;4842007;29;20392;-79
2021/11/08 05:44:51;;;;;;;0.77;0.45;;;;;;;3.71;100.00;101396.16;4848963;29;20040;-79
2021/11/08 05:47:17;;;;;;;1.20;0.40;;;;;;;3.78;100.00;101401.75;4848748;29;20037;-79
2021/11/08 05:49:44;;;;;;;1.27;0.30;;;;;;;3.76;100.00;101401.88;4841617;29;20091;-79
2021/11/08 05:52:12;;;;;;;1.88;0.75;;;;;;;3.73;100.00;101396.84;4830241;29;20041;-79
2021/11/08 05:54:38;;;;;;;1.13;0.40;;;;;;;3.72;100.00;101389.84;4840721;29;20063;-79
2021/11/08 06:49:25;;;;;;;1.13;0.20;;;;;;;2.96;99.82;101499.41;4831866;29;20443;-78
2021/11/08 06:51:53;;;;;;;2.75;0.30;;;;;;;2.86;100.00;101492.38;4842702;29;20069;-79
2021/11/08 06:54:21;;;;;;;1.05;0.25;;;;;;;2.88;100.00;101503.69;4847076;29;20026;-78
2021/11/08 06:56:56;;;;;;;0.98;0.30;;;;;;;2.72;100.00;101493.56;4852948;29;20041;-79
2021/11/08 06:59:25;;;;;;;1.88;0.38;;;;;;;2.80;99.77;101515.00;4852521;29;20042;-80
2021/11/08 07:01:51;;;;;;;3.30;0.22;;;;;;;2.61;99.76;101510.41;4829558;29;20181;-80
2021/11/08 07:04:18;;;;;;;0.40;0.28;;;;;;;2.70;100.00;101538.84;4840149;29;20026;-79
2021/11/08 07:06:44;;;;;;;1.05;0.32;;;;;;;2.69;99.89;101528.38;4843651;29;20026;-80
2021/11/08 07:09:11;;;;;;;0.85;0.30;;;;;;;2.61;99.85;101531.66;4848807;29;20034;-79
2021/11/08 07:11:38;;;;;;;0.63;0.30;;;;;;;2.63;100.00;101547.47;4840456;29;20030;-80
2021/11/08 07:14:05;;;;;;;0.88;0.30;;;;;;;2.57;99.64;101548.84;4840444;29;20037;-80
2021/11/08 07:16:31;;;;;;;0.70;0.25;;;;;;;2.59;99.62;101561.03;4845145;29;20042;-80
2021/11/08 07:18:56;;;;;;;1.52;0.30;;;;;;;2.56;99.58;101561.28;4827655;29;20034;-79
2021/11/08 07:21:21;;;;;;;1.23;0.35;;;;;;;2.56;99.47;101571.91;4845399;29;20089;-80
2021/11/08 07:23:47;;;;;;;1.45;0.30;;;;;;;2.51;99.85;101575.91;4842287;29;20033;-80
2021/11/08 07:26:12;;;;;;;1.25;0.30;;;;;;;2.42;99.77;101572.22;4844558;29;20045;-78
2021/11/08 07:28:38;;;;;;;0.60;0.30;;;;;;;2.49;100.00;101584.03;4846547;29;20061;-79
2021/11/08 07:31:04;;;;;;;2.33;0.30;;;;;;;2.55;100.00;101593.28;4841780;29;20179;-79
2021/11/08 07:33:34;;;;;;;1.35;0.47;;;;;;;2.52;99.96;101594.38;4825488;29;20034;-79
2021/11/08 07:36:00;;;;;;;5.15;0.40;;;;;;;2.51;100.00;101600.66;4843878;29;20038;-79
2021/11/08 07:38:26;;;;;;;2.15;0.30;;;;;;;2.48;100.00;101600.06;4845807;29;20045;-79
2021/11/08 07:40:51;;;;;;;0.95;0.40;;;;;;;2.37;100.00;101594.81;4841872;29;20025;-78
2021/11/08 07:43:17;;;;;;;3.65;0.40;;;;;;;2.43;99.94;101611.09;4845073;29;20551;-78
2021/11/08 07:45:42;;;;;;;0.90;0.50;;;;;;;2.43;100.00;101610.25;4851173;29;20449;-80
2021/11/08 07:48:08;;;;;;;4.25;0.40;;;;;;;2.48;99.69;101622.16;4846476;29;20477;-79
2021/11/08 07:50:34;;;;;;;1.10;0.40;;;;;;;2.51;100.00;101623.72;4844493;29;20608;-79
2021/11/08 07:53:00;;;;;;;0.60;0.22;;;;;;;2.47;99.65;101620.47;4845552;29;20044;-79
2021/11/08 07:55:25;;;;;;;0.68;0.25;;;;;;;2.57;100.00;101637.34;4846564;29;20065;-79
2021/11/08 07:57:51;;;;;;;0.52;0.32;;;;;;;2.62;99.23;101639.63;4846642;29;20062;-80
2021/11/08 08:00:16;;;;;;;0.60;0.40;;;;;;;2.75;98.79;101642.97;4845142;29;20061;-79
2021/11/08 08:02:43;;;;;;;1.83;0.40;;;;;;;2.71;98.45;101635.34;4842481;29;20034;-79
2021/11/08 08:05:09;;;;;;;0.47;0.30;;;;;;;2.73;98.25;101636.94;4842959;29;20346;-80
2021/11/08 08:07:34;;;;;;;0.68;0.30;;;;;;;2.90;98.22;101655.94;4843498;29;20066;-79
2021/11/08 08:10:00;;;;;;;1.73;0.40;;;;;;;2.96;97.42;101663.41;4824094;29;20045;-79
2021/11/08 08:12:25;;;;;;;0.57;0.20;;;;;;;3.04;97.11;101668.91;4843172;29;20091;-80
2021/11/08 08:14:51;;;;;;;0.88;0.32;;;;;;;3.02;97.17;101655.75;4834374;29;20055;-79
2021/11/08 08:17:17;;;;;;;2.40;0.30;;;;;;;3.15;96.93;101679.50;4848014;29;20121;-80
2021/11/08 08:19:42;;;;;;;2.42;0.38;;;;;;;3.00;96.44;101657.69;4829583;29;20070;-80
2021/11/08 08:22:08;;;;;;;0.40;0.20;;;;;;;3.11;96.81;101664.75;4823807;29;20037;-79
2021/11/08 08:24:33;;;;;;;0.20;0.20;;;;;;;2.98;96.08;101662.31;4842627;29;20038;-79
2021/11/08 08:27:04;;;;;;;4.35;0.43;;;;;;;3.08;96.78;101678.34;4826916;29;20042;-79
2021/11/08 08:29:29;;;;;;;1.48;0.20;;;;;;;3.10;95.72;101691.50;4844047;29;20456;-80
2021/11/08 08:31:55;;;;;;;0.55;0.30;;;;;;;3.05;95.75;101689.22;4828680;29;20037;-80
2021/11/08 08:34:21;;;;;;;2.05;0.40;;;;;;;3.07;95.96;101687.25;4839528;29;20045;-80
2021/11/08 08:36:48;;;;;;;2.22;0.30;;;;;;;3.18;95.36;101692.53;4842203;29;20049;-79
2021/11/08 08:39:14;;;;;;;0.50;0.30;;;;;;;3.24;95.85;101692.00;4844560;29;20034;-80
2021/11/08 08:41:42;;;;;;;1.58;0.30;;;;;;;3.14;94.65;101701.72;4835922;29;20426;-79
2021/11/08 08:44:13;;;;;;;0.93;0.38;;;;;;;3.22;94.68;101701.94;4841208;29;20030;-80
2021/11/08 08:46:40;;;;;;;1.30;0.40;;;;;;;3.18;94.46;101708.50;4851401;29;20038;-80
2021/11/08 08:49:05;;;;;;;0.40;0.30;;;;;;;3.15;94.30;101711.41;4851589;29;20033;-80
2021/11/08 08:51:31;;;;;;;0.20;0.20;;;;;;;3.20;94.31;101701.22;4833252;29;20046;-79
2021/11/08 08:53:56;;;;;;;0.20;0.15;;;;;;;3.14;94.05;101690.25;4851496;29;20042;-80
2021/11/08 08:56:22;;;;;;;2.20;0.30;;;;;;;3.14;93.70;101692.91;4833336;29;20053;-79
2021/11/08 08:58:51;;;;;;;0.93;0.40;;;;;;;3.17;93.84;101687.34;4848854;29;20033;-81
2021/11/08 09:01:16;;;;;;;1.75;0.30;;;;;;;3.28;93.64;101712.06;4844022;29;20066;-80
2021/11/08 09:03:41;;;;;;;1.00;0.30;;;;;;;3.32;93.74;101722.47;4825246;29;20057;-79
2021/11/08 09:06:07;;;;;;;0.30;0.20;;;;;;;3.33;93.25;101719.66;4824622;29;20050;-79
2021/11/08 09:08:35;;;;;;;1.40;0.40;;;;;;;3.30;93.28;101702.13;4840939;29;20416;-79
2021/11/08 09:11:00;;;;;;;0.57;0.22;;;;;;;3.37;92.72;101720.22;4840766;29;20038;-80
2021/11/08 09:13:26;;;;;;;0.77;0.28;;;;;;;3.48;93.13;101713.03;4841063;29;20094;-80
2021/11/08 09:15:51;;;;;;;0.30;0.20;;;;;;;3.48;92.67;101715.69;4842933;29;20364;-79
2021/11/08 09:18:17;;;;;;;0.73;0.30;;;;;;;3.45;92.17;101721.28;4827328;29;20069;-79
2021/11/08 09:20:44;;;;;;;0.30;0.20;;;;;;;3.46;93.11;101719.47;4827344;29;20090;-78
2021/11/08 09:23:12;;;;;;;0.40;0.20;;;;;;;3.54;93.01;101722.31;4831449;29;20037;-79
2021/11/08 09:25:39;;;;;;;0.35;0.20;;;;;;;3.47;92.25;101697.19;4838607;29;20117;-79
2021/11/08 09:28:06;;;;;;;0.73;0.20;;;;;;;3.47;92.28;101718.47;4840578;29;20037;-79
2021/11/08 09:30:36;;;;;;;2.40;0.20;;;;;;;3.52;92.88;101710.97;4841850;29;20061;-78
2021/11/08 09:33:02;;;;;;;1.92;0.40;;;;;;;3.65;91.67;101724.91;4850938;29;20061;-79
2021/11/08 09:35:32;;;;;;;0.17;0.10;;;;;;;3.69;91.82;101728.97;4840613;29;20037;-79
2021/11/08 09:37:59;;;;;;;1.42;0.20;;;;;;;3.64;92.00;101733.88;4845378;29;20512;-78
2021/11/08 09:40:26;;;;;;;0.50;0.20;;;;;;;3.75;91.72;101743.59;4826529;29;20037;-78
2021/11/08 09:42:54;;;;;;;0.43;0.10;;;;;;;3.82;91.56;101735.94;4838558;29;20037;-78
2021/11/08 09:45:20;;;;;;;1.95;0.30;;;;;;;3.82;90.99;101741.25;4823820;29;20083;-77
2021/11/08 09:47:48;;;;;;;1.77;0.20;;;;;;;3.92;91.11;101744.81;4825679;29;20034;-78
2021/11/08 09:50:15;;;;;;;0.35;0.20;;;;;;;3.90;91.27;101752.91;4842155;29;20175;-78
2021/11/08 09:52:45;;;;;;;0.40;0.20;;;;;;;3.90;90.88;101744.09;4843285;29;20034;-78
2021/11/08 09:55:16;;;;;;;0.93;0.17;;;;;;;3.87;89.98;101723.03;4843829;29;20027;-78
2021/11/08 09:57:41;;;;;;;0.45;0.30;;;;;;;4.05;90.74;101760.56;4843403;29;20106;-78
2021/11/08 10:00:43;;;;;;;0.65;0.20;;;;;;;4.09;89.98;101768.16;4827589;29;20042;-78
2021/11/08 10:03:13;;;;;;;0.20;0.20;;;;;;;4.17;90.92;101776.31;4845320;29;20030;-78
2021/11/08 10:05:44;;;;;;;0.50;0.20;;;;;;;4.13;89.82;101769.56;4826795;29;20496;-78
2021/11/08 10:08:11;;;;;;;3.92;0.50;;;;;;;4.17;89.84;101770.13;4838499;29;20038;-78
2021/11/08 10:10:37;;;;;;;1.08;0.40;;;;;;;4.16;90.45;101779.09;4844400;29;20041;-78
2021/11/08 10:13:07;;;;;;;0.60;0.35;;;;;;;4.10;89.64;101784.97;4846739;29;20317;-78
2021/11/08 10:15:33;;;;;;;3.05;0.52;;;;;;;4.07;89.28;101767.44;4841855;29;20492;-78
2021/11/08 10:18:01;;;;;;;0.60;0.40;;;;;;;4.19;89.60;101785.00;4835024;29;20034;-78
2021/11/08 10:20:36;;;;;;;3.58;0.40;;;;;;;4.20;88.28;101794.69;4823449;29;20034;-79
2021/11/08 10:23:03;;;;;;;1.20;0.38;;;;;;;4.28;89.35;101795.88;4837549;29;20037;-78
2021/11/08 10:25:30;;;;;;;6.68;0.50;;;;;;;4.38;88.83;101799.41;4810682;29;20042;-78
2021/11/08 10:27:57;;;;;;;3.22;0.40;;;;;;;4.32;88.76;101802.59;4840244;29;20041;-77
2021/11/08 10:30:30;;;;;;;1.35;0.32;;;;;;;4.30;88.77;101792.06;4842394;29;20037;-78
2021/11/08 10:33:10;;;;;;;2.70;0.40;;;;;;;4.39;87.21;101809.06;4848267;29;20113;-79
2021/11/08 10:35:42;;;;;;;0.80;0.43;;;;;;;4.40;87.85;101806.28;4842535;29;20029;-79
2021/11/08 10:38:12;;;;;;;2.38;0.50;;;;;;;4.48;87.56;101800.28;4841458;29;20057;-80
2021/11/08 10:40:47;;;;;;;0.90;0.35;;;;;;;4.29;87.12;101789.53;4845059;29;20105;-81
2021/11/08 10:43:13;;;;;;;1.45;0.55;;;;;;;4.45;87.61;101819.19;4840376;29;20029;-79
2021/11/08 10:45:47;;;;;;;1.15;0.43;;;;;;;4.41;86.24;101831.13;4841432;29;20038;-79
2021/11/08 10:48:18;;;;;;;3.23;0.40;;;;;;;4.24;86.98;101829.91;4839140;29;20068;-79
2021/11/08 10:50:44;;;;;;;0.60;0.20;;;;;;;4.21;87.38;101838.19;4842842;29;20109;-78
2021/11/08 10:53:09;;;;;;;2.88;0.30;;;;;;;4.17;87.72;101834.94;4832270;29;20112;-78
2021/11/08 10:55:35;;;;;;;0.35;0.17;;;;;;;4.12;87.25;101820.31;4846430;29;20030;-79
2021/11/08 10:58:16;;;;;;;1.40;0.20;;;;;;;4.22;86.39;101848.69;4840604;29;20397;-79
2021/11/08 11:00:59;;;;;;;0.43;0.20;;;;;;;4.26;86.65;101854.59;4842227;29;20457;-79
2021/11/08 11:03:26;;;;;;;0.57;0.10;;;;;;;4.29;86.61;101858.81;4838035;29;20057;-78
2021/11/08 11:06:00;;;;;;;0.20;0.13;;;;;;;4.20;86.58;101831.97;4813619;29;20469;-78
2021/11/08 11:08:26;;;;;;;4.05;0.40;;;;;;;4.36;86.97;101850.16;4834017;29;20101;-79
2021/11/08 11:10:57;;;;;;;0.70;0.20;;;;;;;4.43;86.26;101861.97;4826367;29;20491;-79
2021/11/08 11:13:24;;;;;;;0.20;0.20;;;;;;;4.33;86.09;101853.09;4840391;29;20036;-78
2021/11/08 11:15:50;;;;;;;0.57;0.25;;;;;;;4.30;86.02;101866.66;4843022;29;20026;-79
2021/11/08 11:18:17;;;;;;;0.75;0.20;;;;;;;4.42;86.05;101878.09;4826216;29;20022;-79
2021/11/08 11:20:45;;;;;;;0.32;0.10;;;;;;;4.45;86.71;101872.50;4841847;29;20053;-78
2021/11/08 11:23:15;;;;;;;0.30;0.20;;;;;;;4.28;85.32;101873.97;4823941;29;20030;-78
2021/11/08 11:25:50;;;;;;;0.20;0.13;;;;;;;4.21;86.42;101868.31;4842161;29;20077;-78
2021/11/08 11:28:26;;;;;;;0.40;0.20;;;;;;;4.26;86.60;101878.56;4827306;29;20079;-79
2021/11/08 11:30:52;;;;;;;1.55;0.30;;;;;;;4.24;84.72;101884.03;4843569;29;20057;-78
2021/11/08 11:33:21;;;;;;;1.05;0.17;;;;;;;4.19;84.81;101896.91;4834416;29;20038;-79
2021/11/08 11:35:52;;;;;;;0.60;0.20;;;;;;;4.28;85.64;101892.63;4846602;29;20335;-79
2021/11/08 11:38:34;;;;;;;0.75;0.20;;;;;;;4.22;84.46;101888.66;4848043;29;20014;-78
2021/11/08 11:41:14;;;;;;;0.60;0.05;;;;;;;4.17;84.21;101901.53;4843096;29;20099;-80
2021/11/08 11:44:03;;;;;;;1.30;0.20;;;;;;;4.16;83.79;101902.47;4849391;29;20034;-80
2021/11/08 11:46:32;;;;;;;0.75;0.20;;;;;;;4.29;84.04;101904.94;4832415;29;20048;-80
2021/11/08 11:49:02;;;;;;;1.70;0.20;;;;;;;4.37;84.85;101921.16;4842189;29;20457;-80
2021/11/08 11:51:31;;;;;;;2.17;0.30;;;;;;;4.51;85.00;101914.63;4827977;29;20046;-81
2021/11/08 11:53:57;;;;;;;0.98;0.30;;;;;;;4.61;84.90;101917.34;4814243;29;20031;-81
2021/11/08 11:56:24;;;;;;;0.80;0.20;;;;;;;4.82;84.37;101923.47;4851479;29;20524;-80
2021/11/08 11:58:50;;;;;;;0.32;0.28;;;;;;;4.83;84.33;101921.63;4825440;29;20062;-80
2021/11/08 12:01:22;;;;;;;0.40;0.20;;;;;;;4.79;84.26;101921.06;4842414;29;20045;-80
2021/11/08 12:03:49;;;;;;;0.40;0.20;;;;;;;4.83;85.14;101922.47;4843671;29;20116;-80
2021/11/08 12:06:17;;;;;;;0.93;0.20;;;;;;;4.91;85.48;101924.50;4837065;29;20037;-80
2021/11/08 12:08:45;;;;;;;0.65;0.25;;;;;;;4.86;85.60;101924.03;4849066;29;20037;-80
2021/11/08 12:11:11;;;;;;;0.30;0.20;;;;;;;4.70;85.26;101906.72;4826428;29;20046;-80
2021/11/08 12:13:42;;;;;;;0.47;0.30;;;;;;;4.74;86.11;101906.47;4843104;29;20093;-80
2021/11/08 12:16:18;;;;;;;0.40;0.38;;;;;;;4.82;84.60;101920.78;4843094;29;20108;-80
2021/11/08 12:18:46;;;;;;;0.60;0.22;;;;;;;4.81;86.03;101920.94;4838196;29;20033;-80
2021/11/08 12:21:26;;;;;;;0.30;0.20;;;;;;;4.56;86.22;101903.56;4841528;29;20030;-80
2021/11/08 12:23:54;;;;;;;0.40;0.20;;;;;;;4.56;86.00;101931.03;4841971;29;20034;-79
2021/11/08 12:26:30;;;;;;;0.65;0.22;;;;;;;4.41;86.80;101927.06;4841613;29;20034;-79
2021/11/08 12:29:28;;;;;;;0.65;0.20;;;;;;;4.43;87.72;101930.41;4846267;29;20026;-80
2021/11/08 12:32:19;;;;;;;1.23;0.35;;;;;;;4.32;86.93;101922.50;4798400;29;20086;-80
2021/11/08 12:34:50;;;;;;;1.35;0.50;;;;;;;4.36;87.20;101934.59;4825431;29;20067;-80
2021/11/08 12:37:16;;;;;;;2.33;0.40;;;;;;;4.35;86.94;101941.75;4855124;29;20475;-80
2021/11/08 12:39:57;;;;;;;0.77;0.30;;;;;;;4.26;83.98;101953.16;4842419;29;20037;-79
2021/11/08 12:42:23;;;;;;;4.38;0.50;;;;;;;4.32;85.02;101957.13;4839129;29;20369;-79
2021/11/08 12:44:50;;;;;;;0.55;0.30;;;;;;;4.10;84.60;101934.13;4838626;29;20038;-82
2021/11/08 12:47:16;;;;;;;0.68;0.30;;;;;;;4.18;85.16;101945.84;4859069;29;20038;-83
2021/11/08 12:49:50;;;;;;;3.83;0.30;;;;;;;4.18;85.59;101960.97;4858551;29;20436;-81
2021/11/08 12:52:19;;;;;;;0.52;0.30;;;;;;;4.30;85.42;101962.59;4852958;29;20095;-82
2021/11/08 12:54:49;;;;;;;1.33;0.30;;;;;;;4.31;86.04;101961.63;4856855;29;20041;-81
2021/11/08 12:57:17;;;;;;;1.35;0.32;;;;;;;4.17;85.22;101957.47;4844611;29;20377;-80
2021/11/08 12:59:45;;;;;;;0.55;0.30;;;;;;;4.12;84.90;101964.16;4828532;29;20044;-81
2021/11/08 13:02:35;;;;;;;0.90;0.40;;;;;;;3.99;85.12;101951.00;4828195;29;20109;-80
2021/11/08 13:05:06;;;;;;;1.45;0.40;;;;;;;4.08;84.72;101963.56;4843725;29;20041;-81
2021/11/08 13:07:43;;;;;;;2.67;0.40;;;;;;;3.94;84.75;101956.72;4855513;29;20094;-80
2021/11/08 13:10:26;;;;;;;0.90;0.40;;;;;;;3.91;85.12;101969.47;4858539;29;20041;-81
2021/11/08 13:12:54;;;;;;;1.30;0.35;;;;;;;4.05;85.93;101979.81;4851273;29;20512;-81
2021/11/08 13:15:24;;;;;;;4.10;0.50;;;;;;;3.95;85.71;101978.88;4845636;29;20457;-81
2021/11/08 13:18:00;;;;;;;0.85;0.30;;;;;;;4.01;85.05;101989.03;4849180;29;20422;-81